Time;durP1;ratioP1;P1;durP2;ratioP2;P2;SDS_P1;SDS_P2;PMS_P1;PMS_P2;Temp;Humidity;BMP_temperature;BMP_pressure;BME280_temperature;BME280_humidity;BME280_pressure;Samples;Min_cycle;Max_cycle;Signal;HPM_P1;HPM_P2
2022/10/14 00:00:18;;;;;;;11.82;6.97;;;14.40;99.90;;;;;;5028903;28;20025;-75
2022/10/14 00:02:44;;;;;;;17.50;7.32;;;14.40;99.90;;;;;;5031719;28;20025;-74
2022/10/14 00:05:09;;;;;;;20.65;9.10;;;14.50;99.90;;;;;;5029931;28;20075;-75
2022/10/14 00:07:36;;;;;;;16.60;7.15;;;14.40;99.90;;;;;;5029001;28;20391;-75
2022/10/14 00:10:04;;;;;;;11.10;7.53;;;14.40;99.90;;;;;;5036422;28;20076;-75
2022/10/14 00:12:29;;;;;;;11.77;6.50;;;14.30;99.90;;;;;;5028904;28;20064;-75
2022/10/14 00:14:55;;;;;;;10.43;6.63;;;14.20;99.90;;;;;;5027386;28;20049;-75
2022/10/14 00:17:21;;;;;;;12.35;5.57;;;14.30;99.90;;;;;;5048020;28;20029;-74
2022/10/14 00:19:47;;;;;;;15.45;8.68;;;14.30;99.90;;;;;;5049028;28;20554;-75
2022/10/14 00:22:13;;;;;;;21.90;10.57;;;14.20;99.90;;;;;;5036335;28;20100;-75
2022/10/14 00:24:39;;;;;;;20.88;11.30;;;14.30;99.90;;;;;;5028818;28;20100;-75
2022/10/14 00:27:05;;;;;;;19.58;11.10;;;14.10;99.90;;;;;;5029876;28;20480;-75
2022/10/14 00:29:30;;;;;;;19.73;11.93;;;14.20;99.90;;;;;;5032790;28;20377;-75
2022/10/14 00:31:56;;;;;;;23.00;11.68;;;14.10;99.90;;;;;;5036326;28;20025;-75
2022/10/14 00:34:22;;;;;;;16.55;10.90;;;14.00;99.90;;;;;;5029657;28;20198;-75
2022/10/14 00:36:47;;;;;;;13.40;9.52;;;13.80;99.90;;;;;;5028537;28;20033;-75
2022/10/14 00:39:13;;;;;;;16.70;10.63;;;13.60;99.90;;;;;;5029174;28;20128;-75
2022/10/14 00:41:39;;;;;;;16.10;9.90;;;13.70;99.90;;;;;;5036956;28;20417;-75
2022/10/14 00:44:14;;;;;;;14.52;9.73;;;13.80;99.90;;;;;;5033282;28;20483;-75
2022/10/14 00:46:45;;;;;;;21.90;8.98;;;13.70;99.90;;;;;;5028359;28;20169;-75
2022/10/14 00:49:17;;;;;;;16.30;8.60;;;13.60;99.90;;;;;;5029186;28;20056;-75
2022/10/14 00:51:47;;;;;;;16.25;8.82;;;13.50;99.90;;;;;;5028079;28;20029;-75
2022/10/14 00:54:16;;;;;;;16.05;9.50;;;13.60;99.90;;;;;;5029797;28;20128;-74
2022/10/14 00:56:43;;;;;;;17.13;9.77;;;13.70;99.90;;;;;;5027884;28;20460;-75
2022/10/14 00:59:10;;;;;;;15.43;9.88;;;13.80;99.90;;;;;;5032121;28;20036;-75
2022/10/14 01:01:36;;;;;;;20.63;10.13;;;13.90;99.90;;;;;;5029184;28;20033;-75
2022/10/14 01:04:02;;;;;;;21.25;11.07;;;14.00;99.90;;;;;;5029508;28;20107;-75
2022/10/14 01:07:00;;;;;;;19.50;12.48;;;13.90;99.90;;;;;;5027493;28;20025;-74
2022/10/14 01:09:38;;;;;;;20.30;12.07;;;13.90;99.90;;;;;;5039800;28;26609;-75
2022/10/14 01:12:28;;;;;;;18.88;12.15;;;13.90;99.90;;;;;;5037354;28;20030;-75
2022/10/14 01:15:17;;;;;;;22.77;13.02;;;13.90;99.90;;;;;;5027670;28;20095;-75
2022/10/14 01:17:52;;;;;;;18.77;11.15;;;13.80;99.90;;;;;;5030689;28;20060;-75
2022/10/14 01:20:39;;;;;;;15.20;9.00;;;13.70;99.90;;;;;;5027156;28;20041;-75
2022/10/14 01:23:23;;;;;;;11.63;7.95;;;13.70;99.90;;;;;;5027664;28;20030;-75
2022/10/14 01:25:54;;;;;;;14.40;8.05;;;13.70;99.90;;;;;;5027027;28;20120;-75
2022/10/14 01:28:39;;;;;;;17.63;8.60;;;13.60;99.90;;;;;;5030762;28;20390;-75
2022/10/14 01:31:10;;;;;;;12.95;7.05;;;13.50;99.90;;;;;;5033482;28;20025;-74
2022/10/14 01:33:47;;;;;;;14.55;7.90;;;13.40;99.90;;;;;;5028051;28;20391;-74
2022/10/14 01:36:13;;;;;;;12.63;7.60;;;13.50;99.90;;;;;;5029711;28;20037;-74
2022/10/14 01:38:51;;;;;;;13.15;7.47;;;13.60;99.90;;;;;;5028759;28;20112;-75
2022/10/14 01:41:42;;;;;;;14.63;9.00;;;13.50;99.90;;;;;;5031482;28;20032;-74
2022/10/14 01:44:10;;;;;;;24.23;10.27;;;13.70;99.90;;;;;;5034559;28;20104;-75
2022/10/14 01:46:39;;;;;;;16.73;9.15;;;13.70;99.90;;;;;;5028024;28;20037;-75
2022/10/14 01:49:10;;;;;;;19.55;11.27;;;13.80;99.90;;;;;;5030928;28;20037;-75
2022/10/14 01:51:46;;;;;;;15.70;9.43;;;13.70;99.90;;;;;;5027143;28;20404;-75
2022/10/14 01:54:17;;;;;;;11.50;7.20;;;13.70;99.90;;;;;;5029116;28;20033;-74
2022/10/14 01:56:45;;;;;;;13.27;6.63;;;13.70;99.90;;;;;;5032874;28;20033;-74
2022/10/14 01:59:12;;;;;;;14.23;8.25;;;13.50;99.90;;;;;;5034380;28;20158;-75
2022/10/14 02:01:38;;;;;;;13.13;7.72;;;13.50;99.90;;;;;;5030565;28;20033;-75
2022/10/14 02:04:17;;;;;;;14.65;8.55;;;13.50;99.90;;;;;;5029822;28;20534;-75
2022/10/14 02:06:49;;;;;;;16.65;8.93;;;13.60;99.90;;;;;;5038770;28;20087;-75
2022/10/14 02:09:33;;;;;;;12.15;8.13;;;13.70;99.90;;;;;;5032062;28;20025;-75
2022/10/14 02:12:20;;;;;;;16.83;7.72;;;13.70;99.90;;;;;;5035041;28;20045;-75
2022/10/14 02:14:59;;;;;;;12.63;7.35;;;13.70;99.90;;;;;;5031642;28;20435;-75
2022/10/14 02:17:55;;;;;;;14.75;6.78;;;13.70;99.90;;;;;;5035088;28;20029;-75
2022/10/14 02:20:36;;;;;;;14.43;7.20;;;13.70;99.90;;;;;;5036480;28;20041;-75
2022/10/14 02:23:12;;;;;;;18.92;7.97;;;13.80;99.90;;;;;;5038810;28;20029;-75
2022/10/14 02:25:40;;;;;;;15.05;7.75;;;13.90;99.90;;;;;;5035381;28;20061;-75
2022/10/14 02:28:08;;;;;;;12.15;7.13;;;13.70;99.90;;;;;;5030316;28;20041;-75
2022/10/14 02:30:40;;;;;;;13.13;7.65;;;13.70;99.90;;;;;;5032414;28;20037;-75
2022/10/14 02:33:07;;;;;;;13.45;7.50;;;13.70;99.90;;;;;;5032646;28;20033;-75
2022/10/14 02:35:35;;;;;;;16.65;8.13;;;13.70;99.90;;;;;;5043640;28;20395;-75
2022/10/14 02:38:02;;;;;;;15.38;8.60;;;13.70;99.90;;;;;;5029712;28;20159;-75
2022/10/14 02:40:44;;;;;;;16.98;9.65;;;13.80;99.90;;;;;;5031824;28;20029;-75
2022/10/14 02:43:11;;;;;;;17.30;11.00;;;13.70;99.90;;;;;;5031058;28;20041;-75
2022/10/14 02:45:38;;;;;;;14.35;9.50;;;13.80;99.90;;;;;;5034187;28;20144;-75
2022/10/14 02:48:04;;;;;;;13.55;8.23;;;13.80;99.90;;;;;;5029411;28;20114;-75
2022/10/14 02:50:30;;;;;;;14.77;7.22;;;13.80;99.90;;;;;;5031233;28;20079;-75
2022/10/14 02:52:55;;;;;;;16.35;7.68;;;13.80;99.90;;;;;;5029872;28;20025;-75
2022/10/14 02:55:21;;;;;;;14.07;7.30;;;13.80;99.90;;;;;;5030865;28;20025;-75
2022/10/14 02:57:47;;;;;;;14.35;7.18;;;13.80;99.90;;;;;;5030904;28;20114;-75
2022/10/14 03:00:13;;;;;;;11.88;7.20;;;13.80;99.90;;;;;;5030057;28;20479;-73
2022/10/14 03:02:39;;;;;;;17.85;8.30;;;13.80;99.90;;;;;;5030780;28;20042;-74
2022/10/14 03:05:05;;;;;;;14.85;7.55;;;13.80;99.90;;;;;;5025491;28;20044;-73
2022/10/14 03:07:31;;;;;;;13.18;8.60;;;13.80;99.90;;;;;;5024711;28;20025;-73
2022/10/14 03:09:57;;;;;;;21.15;11.15;;;13.80;99.90;;;;;;5025274;28;20034;-73
2022/10/14 03:12:23;;;;;;;19.30;10.93;;;13.80;99.90;;;;;;5028497;28;20026;-73
2022/10/14 03:14:49;;;;;;;19.08;10.32;;;13.80;99.90;;;;;;5031455;28;20048;-74
2022/10/14 03:17:14;;;;;;;16.23;10.30;;;13.80;99.90;;;;;;5024136;28;20025;-74
2022/10/14 03:19:40;;;;;;;18.48;11.05;;;13.80;99.90;;;;;;5022673;28;20036;-73
2022/10/14 03:22:06;;;;;;;18.08;11.10;;;13.70;99.90;;;;;;5022677;28;20349;-73
2022/10/14 03:24:31;;;;;;;17.23;11.27;;;13.80;99.90;;;;;;5031229;28;20072;-73
2022/10/14 03:26:57;;;;;;;19.13;9.38;;;13.80;99.90;;;;;;5027226;28;20376;-73
2022/10/14 03:29:23;;;;;;;14.18;7.65;;;13.70;99.90;;;;;;5025563;28;20029;-73
2022/10/14 03:31:49;;;;;;;20.23;7.30;;;13.70;99.90;;;;;;5030413;28;20229;-73
2022/10/14 03:34:14;;;;;;;13.57;7.28;;;13.60;99.90;;;;;;5025658;28;20422;-73
2022/10/14 03:36:40;;;;;;;11.93;7.22;;;13.70;99.90;;;;;;5034409;28;20506;-73
2022/10/14 03:39:06;;;;;;;13.48;8.40;;;13.70;99.90;;;;;;5026182;28;20456;-73
2022/10/14 03:41:32;;;;;;;16.05;8.68;;;13.70;99.90;;;;;;5025502;28;20121;-73
2022/10/14 03:43:57;;;;;;;18.48;9.18;;;13.70;99.90;;;;;;5024899;28;20091;-73
2022/10/14 03:46:23;;;;;;;14.60;8.90;;;13.60;99.90;;;;;;5026916;28;20032;-73
2022/10/14 03:48:48;;;;;;;17.65;8.40;;;13.70;99.90;;;;;;5021383;28;20033;-73
2022/10/14 03:51:14;;;;;;;13.50;8.52;;;13.70;99.90;;;;;;5022220;28;20091;-73
2022/10/14 03:53:40;;;;;;;13.73;7.32;;;13.70;99.90;;;;;;5022721;28;20028;-73
2022/10/14 03:56:06;;;;;;;12.07;7.95;;;13.70;99.90;;;;;;5030637;28;20392;-73
2022/10/14 03:58:32;;;;;;;16.42;8.30;;;13.80;99.90;;;;;;5025166;28;20029;-73
2022/10/14 04:00:57;;;;;;;16.77;10.52;;;13.80;99.90;;;;;;5023682;28;20479;-73
2022/10/14 04:03:23;;;;;;;16.50;10.93;;;13.80;99.90;;;;;;5026024;28;20030;-73
2022/10/14 04:05:49;;;;;;;16.77;10.63;;;13.80;99.90;;;;;;5022405;28;20202;-73
2022/10/14 04:08:14;;;;;;;16.95;8.40;;;13.80;99.90;;;;;;5022381;28;20044;-73
2022/10/14 04:10:40;;;;;;;14.85;8.35;;;13.70;99.90;;;;;;5024619;28;20030;-73
2022/10/14 04:13:06;;;;;;;11.80;7.18;;;13.60;99.90;;;;;;5023719;28;20030;-74
2022/10/14 04:15:33;;;;;;;14.02;7.78;;;13.50;99.90;;;;;;5024210;28;20128;-73
2022/10/14 04:17:59;;;;;;;19.90;8.30;;;13.40;99.90;;;;;;5022693;28;20039;-73
2022/10/14 04:20:24;;;;;;;12.15;8.13;;;13.40;99.90;;;;;;5024100;28;20021;-73
2022/10/14 04:22:50;;;;;;;19.73;10.57;;;13.40;99.90;;;;;;5031643;28;20033;-73
2022/10/14 04:25:16;;;;;;;16.70;9.73;;;13.50;99.90;;;;;;5023097;28;20052;-73
2022/10/14 04:27:41;;;;;;;21.50;10.57;;;13.60;99.90;;;;;;5028400;28;20033;-74
2022/10/14 04:30:08;;;;;;;15.48;9.80;;;13.60;99.90;;;;;;5025481;28;20163;-73
2022/10/14 04:32:34;;;;;;;18.40;9.90;;;13.50;99.90;;;;;;5025400;28;20032;-73
2022/10/14 04:34:59;;;;;;;15.93;9.23;;;13.50;99.90;;;;;;5025425;28;20380;-74
2022/10/14 04:37:25;;;;;;;14.20;8.63;;;13.50;99.90;;;;;;5021361;28;20061;-73
2022/10/14 04:39:50;;;;;;;15.50;8.98;;;13.40;99.90;;;;;;5020324;28;20163;-73
2022/10/14 04:42:16;;;;;;;15.63;9.00;;;13.30;99.90;;;;;;5024466;28;20029;-74
2022/10/14 04:44:42;;;;;;;14.45;8.27;;;13.20;99.90;;;;;;5029746;28;20129;-73
2022/10/14 04:47:07;;;;;;;17.17;8.40;;;13.10;99.90;;;;;;5022820;28;20168;-73
2022/10/14 04:49:33;;;;;;;22.65;9.60;;;13.10;99.90;;;;;;5021461;28;20037;-73
2022/10/14 04:51:58;;;;;;;18.40;9.43;;;13.00;99.90;;;;;;5031010;28;20036;-73
2022/10/14 04:54:24;;;;;;;16.60;9.05;;;13.00;99.90;;;;;;5030978;28;20499;-73
2022/10/14 04:56:50;;;;;;;17.30;9.32;;;13.00;99.90;;;;;;5025329;28;20083;-73
2022/10/14 04:59:15;;;;;;;17.83;8.98;;;12.90;99.90;;;;;;5031026;28;20093;-73
2022/10/14 05:01:41;;;;;;;18.90;11.32;;;13.00;99.90;;;;;;5035566;28;20620;-74
2022/10/14 05:04:07;;;;;;;17.02;9.82;;;13.10;99.90;;;;;;5021410;28;20040;-73
2022/10/14 05:06:32;;;;;;;16.13;8.50;;;13.10;99.90;;;;;;5027536;28;20033;-73
2022/10/14 05:08:58;;;;;;;17.17;8.32;;;12.70;99.90;;;;;;5020618;28;20025;-74
2022/10/14 05:11:23;;;;;;;15.57;9.15;;;12.60;99.90;;;;;;5025582;28;20136;-73
2022/10/14 05:13:49;;;;;;;17.67;9.38;;;12.60;99.90;;;;;;5020670;28;20514;-73
2022/10/14 05:16:15;;;;;;;15.45;9.50;;;12.60;99.90;;;;;;5018662;28;20087;-73
2022/10/14 05:18:40;;;;;;;16.95;10.57;;;12.40;99.90;;;;;;5022278;28;20419;-72
2022/10/14 05:21:06;;;;;;;17.02;9.93;;;12.50;99.90;;;;;;5027747;28;20029;-74
2022/10/14 05:23:32;;;;;;;18.70;10.05;;;12.40;99.90;;;;;;5027717;28;20113;-71
2022/10/14 05:25:57;;;;;;;19.02;11.18;;;12.30;99.90;;;;;;5019752;28;20418;-73
2022/10/14 05:28:23;;;;;;;21.50;11.13;;;12.50;99.90;;;;;;5027929;28;20602;-72
2022/10/14 05:30:49;;;;;;;19.40;10.70;;;12.60;99.90;;;;;;5027068;28;20069;-73
2022/10/14 05:33:14;;;;;;;17.73;10.13;;;12.50;99.90;;;;;;5028212;28;20078;-73
2022/10/14 05:35:41;;;;;;;20.52;10.65;;;12.60;99.90;;;;;;5027223;28;20083;-73
2022/10/14 05:38:07;;;;;;;16.30;10.60;;;12.70;99.90;;;;;;5026485;28;20037;-72
2022/10/14 05:40:33;;;;;;;19.73;10.00;;;12.60;99.90;;;;;;5026018;28;20077;-73
2022/10/14 05:42:59;;;;;;;21.23;10.95;;;12.40;99.90;;;;;;5026544;28;20048;-72
2022/10/14 05:45:25;;;;;;;20.38;12.40;;;12.50;99.90;;;;;;5041890;28;20048;-72
2022/10/14 05:47:52;;;;;;;24.80;12.32;;;12.60;99.90;;;;;;5031255;28;20360;-72
2022/10/14 05:50:17;;;;;;;21.60;11.82;;;12.80;99.90;;;;;;5028051;28;20551;-73
2022/10/14 05:52:43;;;;;;;21.05;12.18;;;13.00;99.90;;;;;;5037025;28;20029;-72
2022/10/14 05:55:09;;;;;;;22.30;11.00;;;13.10;99.90;;;;;;5027449;28;20468;-72
2022/10/14 05:57:35;;;;;;;16.88;10.68;;;13.10;99.90;;;;;;5026158;28;20605;-72
2022/10/14 06:00:01;;;;;;;16.65;9.27;;;13.10;99.90;;;;;;5026078;28;20064;-73
2022/10/14 06:02:26;;;;;;;16.05;9.35;;;13.00;99.90;;;;;;5028362;28;20041;-72
2022/10/14 06:04:52;;;;;;;17.48;10.02;;;12.90;99.90;;;;;;5026639;28;20049;-73
2022/10/14 06:07:18;;;;;;;16.35;9.38;;;13.00;99.90;;;;;;5029430;28;21437;-73
2022/10/14 06:09:44;;;;;;;19.08;9.93;;;13.00;99.90;;;;;;5030890;28;20020;-73
2022/10/14 06:12:10;;;;;;;18.67;8.90;;;13.10;99.90;;;;;;5028951;28;20282;-72
2022/10/14 06:14:37;;;;;;;17.35;9.70;;;13.10;99.90;;;;;;5025845;28;20119;-73
2022/10/14 06:17:04;;;;;;;16.27;9.15;;;13.10;99.90;;;;;;5036568;28;20474;-73
2022/10/14 06:19:30;;;;;;;15.25;8.98;;;13.10;99.90;;;;;;5040973;28;20037;-72
2022/10/14 06:21:56;;;;;;;20.50;8.82;;;13.20;99.90;;;;;;5027583;28;20033;-73
2022/10/14 06:24:22;;;;;;;16.30;9.57;;;13.10;99.90;;;;;;5032222;28;20055;-74
2022/10/14 06:26:48;;;;;;;20.15;8.70;;;13.10;99.90;;;;;;5031681;28;20037;-73
2022/10/14 06:29:14;;;;;;;18.30;9.57;;;13.00;99.90;;;;;;5026316;28;20064;-74
2022/10/14 06:31:40;;;;;;;14.43;9.02;;;13.00;99.90;;;;;;5026869;28;20030;-74
2022/10/14 06:34:05;;;;;;;16.83;8.48;;;13.00;99.90;;;;;;5027858;28;20025;-75
2022/10/14 06:36:31;;;;;;;15.88;8.35;;;13.10;99.90;;;;;;5032478;28;20545;-74
2022/10/14 06:38:57;;;;;;;16.33;10.00;;;13.10;99.90;;;;;;5025672;28;20026;-74
2022/10/14 06:41:23;;;;;;;18.00;8.35;;;13.10;99.90;;;;;;5021739;28;21051;-74
2022/10/14 06:43:49;;;;;;;14.63;9.02;;;13.00;99.90;;;;;;5023674;28;20033;-74
2022/10/14 06:46:14;;;;;;;17.75;9.85;;;13.10;99.90;;;;;;5023520;28;20048;-74
2022/10/14 06:48:40;;;;;;;15.20;9.05;;;13.10;99.90;;;;;;5023350;28;20140;-74
2022/10/14 06:51:06;;;;;;;17.85;9.55;;;13.10;99.90;;;;;;5022966;28;20036;-74
2022/10/14 06:53:32;;;;;;;17.45;8.45;;;13.20;99.90;;;;;;5026086;28;20040;-74
2022/10/14 06:56:00;;;;;;;15.55;9.57;;;13.10;99.90;;;;;;5037163;28;20187;-74
2022/10/14 06:58:26;;;;;;;14.43;8.95;;;13.20;99.90;;;;;;5028243;28;20025;-74
2022/10/14 07:00:51;;;;;;;17.60;9.85;;;13.20;99.90;;;;;;5020787;28;21123;-74
2022/10/14 07:03:17;;;;;;;15.05;9.43;;;13.30;99.90;;;;;;5021521;28;20033;-74
2022/10/14 07:05:43;;;;;;;14.13;7.65;;;13.30;99.90;;;;;;5025305;28;20038;-74
2022/10/14 07:08:08;;;;;;;14.57;8.35;;;13.30;99.90;;;;;;5023603;28;20037;-72
2022/10/14 07:10:34;;;;;;;12.07;6.50;;;13.30;99.90;;;;;;5027528;28;20038;-74
2022/10/14 07:13:00;;;;;;;12.85;7.63;;;13.30;99.90;;;;;;5022842;28;20021;-73
2022/10/14 07:15:25;;;;;;;13.73;7.57;;;13.40;99.90;;;;;;5027940;28;20446;-72
2022/10/14 07:17:51;;;;;;;11.95;7.25;;;13.40;99.90;;;;;;5023883;28;20033;-72
2022/10/14 07:20:17;;;;;;;13.38;7.68;;;13.50;99.90;;;;;;5023774;28;20467;-72
2022/10/14 07:22:42;;;;;;;12.80;7.88;;;13.60;99.90;;;;;;5029821;28;20052;-73
2022/10/14 07:25:08;;;;;;;12.88;7.30;;;13.70;99.90;;;;;;5023611;28;20031;-72
2022/10/14 07:27:34;;;;;;;12.88;6.85;;;13.70;99.90;;;;;;5021885;28;20033;-72
2022/10/14 07:30:00;;;;;;;11.52;6.65;;;13.80;99.90;;;;;;5021954;28;20025;-73
2022/10/14 07:32:26;;;;;;;13.75;6.70;;;13.80;99.90;;;;;;5022342;28;20018;-72
2022/10/14 07:34:52;;;;;;;10.13;5.93;;;13.90;99.90;;;;;;5023102;28;20636;-73
2022/10/14 07:37:17;;;;;;;11.68;6.53;;;13.90;99.90;;;;;;5022222;28;20025;-72
2022/10/14 07:39:43;;;;;;;12.27;6.85;;;13.90;99.90;;;;;;5023994;28;20033;-72
2022/10/14 07:42:09;;;;;;;15.32;8.00;;;14.00;99.90;;;;;;5026404;28;20120;-72
2022/10/14 07:44:37;;;;;;;13.32;8.35;;;14.00;99.90;;;;;;5023320;28;20566;-73
2022/10/14 07:47:04;;;;;;;20.58;9.35;;;13.90;99.90;;;;;;5017691;28;20057;-72
2022/10/14 07:49:29;;;;;;;17.60;8.60;;;13.90;99.90;;;;;;5024142;28;20063;-72
2022/10/14 07:51:55;;;;;;;13.27;9.23;;;13.80;99.90;;;;;;5028882;28;20541;-72
2022/10/14 07:54:23;;;;;;;16.55;8.80;;;13.80;99.90;;;;;;5026759;28;20029;-73
2022/10/14 07:56:50;;;;;;;22.48;11.77;;;13.90;99.90;;;;;;5021953;28;20149;-72
2022/10/14 07:59:17;;;;;;;21.33;11.70;;;14.00;99.90;;;;;;5022120;28;20079;-72
2022/10/14 08:01:48;;;;;;;22.67;10.18;;;13.90;99.90;;;;;;5022120;28;20490;-72
2022/10/14 08:04:14;;;;;;;15.27;10.00;;;14.00;99.90;;;;;;5026073;28;20037;-72
2022/10/14 08:06:40;;;;;;;16.05;8.82;;;14.00;99.90;;;;;;5030111;28;20058;-73
2022/10/14 08:09:07;;;;;;;15.85;10.57;;;14.10;99.90;;;;;;5029021;28;20402;-73
2022/10/14 08:11:33;;;;;;;16.92;9.77;;;14.10;99.90;;;;;;5027706;28;20032;-72
2022/10/14 08:13:59;;;;;;;14.93;9.88;;;14.20;99.90;;;;;;5029461;28;20040;-73
2022/10/14 08:16:28;;;;;;;18.17;9.20;;;14.30;99.90;;;;;;5029103;28;20029;-72
2022/10/14 08:18:59;;;;;;;15.60;9.10;;;14.40;99.90;;;;;;5025110;28;20112;-72
2022/10/14 08:21:26;;;;;;;16.77;8.10;;;14.50;99.90;;;;;;5022063;28;20488;-73
2022/10/14 08:23:53;;;;;;;13.80;8.80;;;14.60;99.90;;;;;;5023689;28;20067;-73
2022/10/14 08:26:28;;;;;;;15.20;8.18;;;14.70;99.90;;;;;;5024965;28;20159;-72
2022/10/14 08:28:54;;;;;;;14.52;8.45;;;14.70;99.90;;;;;;5027030;28;20030;-72
2022/10/14 08:31:20;;;;;;;12.50;6.70;;;14.70;99.90;;;;;;5023235;28;20087;-73
2022/10/14 08:33:47;;;;;;;14.65;7.43;;;14.80;99.90;;;;;;5028582;28;20100;-72
2022/10/14 08:36:13;;;;;;;15.93;8.45;;;14.90;99.90;;;;;;5020348;28;20064;-73
2022/10/14 08:38:38;;;;;;;16.08;8.02;;;14.90;99.90;;;;;;5020254;28;20029;-73
2022/10/14 08:41:16;;;;;;;14.75;8.68;;;15.00;99.90;;;;;;5023181;28;20101;-72
2022/10/14 08:43:56;;;;;;;16.88;8.02;;;15.00;99.90;;;;;;5027113;28;20037;-72
2022/10/14 08:46:43;;;;;;;13.88;8.32;;;15.10;99.90;;;;;;5021075;28;20088;-73
2022/10/14 08:49:43;;;;;;;15.93;8.57;;;15.10;99.90;;;;;;5020506;28;20040;-72
2022/10/14 08:52:19;;;;;;;17.98;8.95;;;15.10;99.90;;;;;;5021675;28;20100;-72
2022/10/14 08:54:50;;;;;;;15.20;8.80;;;15.20;99.90;;;;;;5028638;28;20065;-72
2022/10/14 08:57:21;;;;;;;13.95;8.88;;;15.30;99.90;;;;;;5019702;28;20456;-72
2022/10/14 08:59:47;;;;;;;16.00;8.90;;;15.40;99.90;;;;;;5020865;28;20083;-72
2022/10/14 09:02:28;;;;;;;15.73;8.35;;;15.50;99.90;;;;;;5018653;28;20472;-73
2022/10/14 09:04:55;;;;;;;15.68;8.32;;;15.60;99.90;;;;;;5029967;28;20171;-73
2022/10/14 09:07:21;;;;;;;13.10;7.47;;;15.60;99.90;;;;;;5026404;28;20866;-73
2022/10/14 09:09:51;;;;;;;19.60;9.13;;;15.70;99.90;;;;;;5028280;28;20094;-73
2022/10/14 09:12:26;;;;;;;13.35;8.18;;;15.70;99.90;;;;;;5028522;28;21065;-73
2022/10/14 09:15:04;;;;;;;12.18;7.53;;;15.70;99.90;;;;;;5026894;28;20045;-73
2022/10/14 09:17:50;;;;;;;12.07;7.63;;;15.80;99.90;;;;;;5021457;28;20132;-73
2022/10/14 09:20:20;;;;;;;13.90;7.78;;;15.80;99.90;;;;;;5019334;28;20037;-73
2022/10/14 09:23:04;;;;;;;17.85;7.95;;;15.90;99.90;;;;;;5024671;28;20383;-73
2022/10/14 09:25:32;;;;;;;12.60;7.97;;;15.90;99.90;;;;;;5030082;28;20127;-74
2022/10/14 09:27:58;;;;;;;15.32;8.27;;;15.80;99.90;;;;;;5029530;28;20029;-74
2022/10/14 09:30:24;;;;;;;13.30;8.20;;;15.90;99.90;;;;;;5027594;28;20029;-73
2022/10/14 09:32:52;;;;;;;15.98;8.50;;;15.90;99.90;;;;;;5027552;28;20111;-73
2022/10/14 09:35:21;;;;;;;14.00;7.30;;;16.10;99.90;;;;;;5026924;28;20037;-73
2022/10/14 09:37:47;;;;;;;15.55;8.60;;;16.20;99.90;;;;;;5028815;28;20507;-73
2022/10/14 09:40:34;;;;;;;14.90;8.10;;;16.20;99.90;;;;;;5026918;28;20076;-73
2022/10/14 09:43:09;;;;;;;12.30;7.72;;;16.30;99.90;;;;;;5027344;28;20030;-73
2022/10/14 09:45:46;;;;;;;14.57;6.82;;;16.40;99.90;;;;;;5027135;28;20056;-73
2022/10/14 09:48:37;;;;;;;14.00;7.78;;;16.50;99.90;;;;;;5022511;28;20045;-73
2022/10/14 09:51:31;;;;;;;13.38;7.40;;;16.60;99.90;;;;;;5028427;28;20041;-73
2022/10/14 09:54:00;;;;;;;14.33;7.53;;;16.50;99.90;;;;;;5024394;28;20492;-72
2022/10/14 09:56:34;;;;;;;11.60;6.93;;;16.50;99.90;;;;;;5022594;28;20041;-73
2022/10/14 09:59:01;;;;;;;17.98;6.90;;;16.70;99.90;;;;;;5021728;28;20056;-73
2022/10/14 10:01:36;;;;;;;13.32;6.93;;;17.00;99.90;;;;;;5026311;28;20083;-73
2022/10/14 10:04:32;;;;;;;13.32;7.18;;;17.00;99.90;;;;;;5026658;28;20553;-73
2022/10/14 10:07:00;;;;;;;12.77;6.72;;;17.00;99.90;;;;;;5019038;28;20029;-73
2022/10/14 10:09:26;;;;;;;8.75;6.15;;;17.20;99.90;;;;;;5019124;28;20842;-73
2022/10/14 10:11:52;;;;;;;11.10;7.53;;;17.40;99.90;;;;;;5024915;28;20028;-73
2022/10/14 10:14:31;;;;;;;10.20;6.80;;;17.40;99.90;;;;;;5021132;28;20686;-73
2022/10/14 10:17:09;;;;;;;14.68;7.40;;;17.40;99.90;;;;;;5027704;28;20045;-73
2022/10/14 10:19:43;;;;;;;12.50;6.07;;;17.60;99.90;;;;;;5023589;28;20903;-73
2022/10/14 10:22:25;;;;;;;11.93;7.43;;;17.60;99.90;;;;;;5023400;28;20033;-73
2022/10/14 10:24:59;;;;;;;13.38;6.90;;;17.80;99.90;;;;;;5028688;28;20041;-73
2022/10/14 10:27:37;;;;;;;9.95;6.72;;;18.00;99.90;;;;;;5034297;28;20429;-73
2022/10/14 10:30:28;;;;;;;9.25;5.60;;;18.10;99.90;;;;;;5030351;28;20032;-73
2022/10/14 10:33:16;;;;;;;11.43;6.28;;;18.10;99.90;;;;;;5022036;28;20039;-73
2022/10/14 10:36:03;;;;;;;12.02;6.60;;;18.20;99.90;;;;;;5023819;28;20545;-73
2022/10/14 10:38:38;;;;;;;12.63;6.68;;;18.10;99.90;;;;;;5022505;28;20447;-73
2022/10/14 10:41:14;;;;;;;12.32;6.43;;;18.20;99.90;;;;;;5028554;28;20033;-73
2022/10/14 10:43:48;;;;;;;12.38;6.78;;;18.20;99.90;;;;;;5022513;28;20028;-73
2022/10/14 10:46:13;;;;;;;13.52;6.50;;;18.30;99.90;;;;;;5022252;28;20466;-73
2022/10/14 10:48:46;;;;;;;12.20;5.82;;;18.40;99.90;;;;;;5023003;28;20091;-73
2022/10/14 10:51:29;;;;;;;18.55;6.65;;;18.50;99.90;;;;;;5022662;28;20439;-73
2022/10/14 10:53:54;;;;;;;9.20;5.55;;;18.40;99.90;;;;;;5023147;28;20037;-73
2022/10/14 10:56:39;;;;;;;9.07;5.30;;;18.30;99.90;;;;;;5022040;28;20514;-73
2022/10/14 10:59:22;;;;;;;9.18;5.82;;;18.50;99.90;;;;;;5021782;28;20452;-73
2022/10/14 11:02:15;;;;;;;10.82;5.32;;;18.50;99.90;;;;;;5021811;28;20029;-73
2022/10/14 11:04:56;;;;;;;11.50;5.60;;;18.60;99.90;;;;;;5029091;28;20033;-73
2022/10/14 11:13:54;;;;;;;8.95;5.38;;;18.90;99.90;;;;;;5021936;28;20240;-73
2022/10/14 11:16:41;;;;;;;9.65;5.18;;;19.00;99.90;;;;;;5021433;28;20304;-73
2022/10/14 11:19:26;;;;;;;7.88;4.35;;;19.00;99.90;;;;;;5022051;28;20076;-73
2022/10/14 11:22:27;;;;;;;8.13;4.68;;;19.00;99.60;;;;;;5021613;28;20101;-73
2022/10/14 11:25:21;;;;;;;9.13;5.15;;;19.10;99.60;;;;;;5020256;28;20397;-73
2022/10/14 11:28:15;;;;;;;8.52;5.43;;;19.10;99.80;;;;;;5021887;28;20492;-73
2022/10/14 11:31:00;;;;;;;8.80;4.90;;;19.30;99.70;;;;;;5022405;28;20485;-73
2022/10/14 11:34:01;;;;;;;;;;;19.50;99.10;;;;;;5029612;28;20036;-73
2022/10/14 11:36:37;;;;;;;12.02;4.72;;;19.40;98.90;;;;;;5021714;28;19932;-72
2022/10/14 11:39:21;;;;;;;8.15;5.00;;;19.50;99.00;;;;;;5026287;28;20051;-72
2022/10/14 11:41:56;;;;;;;;;;;19.40;98.60;;;;;;5021869;28;20029;-72
2022/10/14 11:44:37;;;;;;;10.65;5.45;;;19.50;99.60;;;;;;5024166;28;19924;-72
2022/10/14 11:47:25;;;;;;;12.65;5.10;;;19.60;99.10;;;;;;5021317;28;21485;-73
2022/10/14 11:49:54;;;;;;;7.93;4.40;;;19.60;98.60;;;;;;5020461;28;20060;-72
2022/10/14 11:52:34;;;;;;;12.60;5.82;;;19.40;98.50;;;;;;5021890;28;20112;-72
2022/10/14 11:55:18;;;;;;;8.88;5.20;;;19.50;99.00;;;;;;5030122;28;20619;-72
2022/10/14 11:57:49;;;;;;;12.50;5.93;;;19.50;99.30;;;;;;5020643;28;25000;-72
2022/10/14 12:00:19;;;;;;;8.93;5.70;;;19.50;99.50;;;;;;5022127;28;20026;-72
2022/10/14 12:02:48;;;;;;;9.23;4.88;;;19.50;99.30;;;;;;5022100;28;20083;-72
2022/10/14 12:05:31;;;;;;;9.95;4.65;;;19.40;99.20;;;;;;5021868;28;20041;-72
2022/10/14 12:08:15;;;;;;;8.07;4.97;;;19.50;99.50;;;;;;5021814;28;20428;-72
2022/10/14 12:10:46;;;;;;;;;;;19.50;99.40;;;;;;5020243;28;20778;-72
2022/10/14 12:13:16;;;;;;;8.07;4.50;;;19.60;99.40;;;;;;5019754;28;19936;-73
2022/10/14 12:15:51;;;;;;;9.68;4.28;;;19.70;99.40;;;;;;5022442;28;20053;-73
2022/10/14 12:18:21;;;;;;;9.57;4.45;;;19.80;99.90;;;;;;5021532;28;20035;-72
2022/10/14 12:20:50;;;;;;;7.78;4.35;;;19.70;99.50;;;;;;5019999;28;20034;-73
2022/10/14 12:23:28;;;;;;;8.82;4.53;;;19.70;99.40;;;;;;5025234;28;21842;-73
2022/10/14 12:26:37;;;;;;;10.32;5.25;;;19.70;99.30;;;;;;5019252;28;20048;-73
2022/10/14 12:29:03;;;;;;;9.75;5.47;;;19.60;99.10;;;;;;5009969;28;20634;-72
2022/10/14 12:31:37;;;;;;;8.68;4.70;;;19.60;98.40;;;;;;5019817;28;20064;-72
2022/10/14 12:34:26;;;;;;;9.13;6.00;;;19.50;98.70;;;;;;5020048;28;20026;-73
2022/10/14 12:36:52;;;;;;;9.82;4.65;;;19.60;99.20;;;;;;5024626;28;20043;-73
2022/10/14 12:39:17;;;;;;;10.35;5.03;;;19.60;99.30;;;;;;5024336;28;20103;-72
2022/10/14 12:41:55;;;;;;;10.70;4.80;;;19.60;99.30;;;;;;5021039;28;20491;-72
2022/10/14 12:44:33;;;;;;;9.27;5.15;;;19.60;99.60;;;;;;5023588;28;20490;-72
2022/10/14 12:46:59;;;;;;;10.73;5.55;;;19.60;99.60;;;;;;5023006;28;20044;-73
2022/10/14 12:49:27;;;;;;;10.32;5.05;;;19.50;99.30;;;;;;5025549;28;20357;-72
2022/10/14 12:52:00;;;;;;;9.73;4.15;;;19.50;99.20;;;;;;5022456;28;20029;-73
2022/10/14 12:54:26;;;;;;;10.77;5.13;;;19.50;99.20;;;;;;5022369;28;20033;-73
2022/10/14 12:56:57;;;;;;;14.02;5.20;;;19.60;99.40;;;;;;5028425;28;21750;-73
2022/10/14 12:59:38;;;;;;;11.48;4.53;;;19.70;99.00;;;;;;5021274;28;20115;-74
2022/10/14 13:02:31;;;;;;;9.70;4.90;;;19.70;99.10;;;;;;5019333;28;20044;-74